createdAt,value
2017-12-20T00:00:37.122Z,45.23
2017-12-20T00:03:04.650Z,48.23
2017-12-20T00:05:32.206Z,40.83
2017-12-20T00:07:59.738Z,44.30
2017-12-20T00:10:28.060Z,51.50
2017-12-20T00:12:55.603Z,38.87
2017-12-20T00:15:23.149Z,39.93
2017-12-20T00:17:51.439Z,41.87
2017-12-20T00:20:19.007Z,44.73
2017-12-20T00:22:46.548Z,40.90
2017-12-20T00:25:14.127Z,41.03
2017-12-20T00:27:41.664Z,37.80
2017-12-20T00:30:09.983Z,42.33
2017-12-20T00:32:37.518Z,36.03
2017-12-20T00:35:05.075Z,44.00
2017-12-20T00:37:32.603Z,49.63
2017-12-20T00:40:00.159Z,45.13
2017-12-20T00:42:27.697Z,48.53
2017-12-20T00:44:55.252Z,45.87
2017-12-20T00:47:22.797Z,40.00
2017-12-20T00:49:50.356Z,36.60
2017-12-20T00:52:17.889Z,42.60
2017-12-20T00:54:45.450Z,42.97
2017-12-20T00:57:12.991Z,39.60
2017-12-20T00:59:41.315Z,45.27
2017-12-20T01:02:08.843Z,42.37
2017-12-20T01:04:37.150Z,50.20
2017-12-20T01:07:04.688Z,40.03
2017-12-20T01:09:32.242Z,34.97
2017-12-20T01:11:59.777Z,52.57
2017-12-20T01:14:27.472Z,41.83
2017-12-20T01:16:55.003Z,50.23
2017-12-20T01:19:23.331Z,37.33
2017-12-20T01:21:50.858Z,38.87
2017-12-20T01:24:18.408Z,48.70
2017-12-20T01:26:46.708Z,39.47
2017-12-20T01:29:14.239Z,56.37
2017-12-20T01:31:42.550Z,41.03
2017-12-20T01:34:10.074Z,44.43
2017-12-20T01:36:38.399Z,41.43
2017-12-20T01:39:05.932Z,40.73
2017-12-20T01:41:33.487Z,41.93
2017-12-20T01:44:01.812Z,36.27
2017-12-20T01:46:29.372Z,40.17
2017-12-20T01:48:56.899Z,37.70
2017-12-20T01:51:24.451Z,42.10
2017-12-20T01:53:51.978Z,35.60
2017-12-20T01:56:19.540Z,39.27
2017-12-20T01:58:47.067Z,34.70
2017-12-20T02:01:14.618Z,39.93
2017-12-20T02:03:42.146Z,32.47
2017-12-20T02:06:09.706Z,27.30
2017-12-20T02:08:37.246Z,28.07
2017-12-20T02:11:05.567Z,32.47
2017-12-20T02:13:33.104Z,34.00
2017-12-20T02:16:00.656Z,31.60
2017-12-20T02:18:28.950Z,31.70
2017-12-20T02:21:05.436Z,26.87
2017-12-20T02:23:32.966Z,30.60
2017-12-20T02:26:00.519Z,25.00
2017-12-20T02:28:28.815Z,31.03
2017-12-20T02:30:56.366Z,30.43
2017-12-20T02:33:30.455Z,24.60
2017-12-20T02:35:58.775Z,29.13
2017-12-20T02:38:38.134Z,21.27
2017-12-20T02:41:08.476Z,25.10
2017-12-20T02:43:36.775Z,20.90
2017-12-20T02:46:05.096Z,20.30
2017-12-20T02:48:32.628Z,23.83
2017-12-20T02:51:00.179Z,21.23
2017-12-20T02:53:28.475Z,20.60
2017-12-20T02:55:56.047Z,20.60
2017-12-20T02:58:23.582Z,19.53
2017-12-20T03:00:51.131Z,17.70
2017-12-20T03:03:19.476Z,19.20
2017-12-20T03:05:47.055Z,17.87
2017-12-20T03:08:14.586Z,15.70
2017-12-20T03:10:42.138Z,22.40
2017-12-20T03:13:09.667Z,16.00
2017-12-20T03:15:37.219Z,18.17
2017-12-20T03:18:04.752Z,19.33
2017-12-20T03:20:32.316Z,22.13
2017-12-20T03:23:00.686Z,17.43
2017-12-20T03:25:28.203Z,18.17
2017-12-20T03:27:55.737Z,18.83
2017-12-20T03:30:23.296Z,23.50
2017-12-20T03:32:50.839Z,17.70
2017-12-20T03:35:19.160Z,18.30
2017-12-20T03:37:46.691Z,20.37
2017-12-20T03:40:14.251Z,16.70
2017-12-20T03:42:41.789Z,17.10
2017-12-20T03:45:10.115Z,20.37
2017-12-20T03:47:37.638Z,17.63
2017-12-20T03:50:05.968Z,22.93
2017-12-20T03:52:33.504Z,20.73
2017-12-20T03:55:01.054Z,18.63
2017-12-20T03:57:28.577Z,16.50
2017-12-20T03:59:56.152Z,18.40
2017-12-20T04:02:24.451Z,18.80
2017-12-20T04:04:51.979Z,15.87
2017-12-20T04:07:20.293Z,17.50
2017-12-20T04:09:47.819Z,21.43
2017-12-20T04:12:16.139Z,16.30
2017-12-20T04:14:43.658Z,14.53
2017-12-20T04:17:11.980Z,15.07
2017-12-20T04:19:39.511Z,14.60
2017-12-20T04:22:07.064Z,16.17
2017-12-20T04:24:35.363Z,17.23
2017-12-20T04:27:02.921Z,18.03
2017-12-20T04:29:30.448Z,25.67
2017-12-20T04:31:58.774Z,16.80
2017-12-20T04:34:26.302Z,18.60
2017-12-20T04:36:54.629Z,19.80
2017-12-20T04:39:22.170Z,21.83
2017-12-20T04:41:49.724Z,22.47
2017-12-20T04:44:17.252Z,16.23
2017-12-20T04:46:45.562Z,20.30
2017-12-20T04:49:13.100Z,21.07
2017-12-20T04:51:40.655Z,17.63
2017-12-20T04:54:08.193Z,19.93
2017-12-20T04:56:36.520Z,15.70
2017-12-20T04:59:04.056Z,17.03
2017-12-20T05:01:31.612Z,22.57
2017-12-20T05:03:59.148Z,17.00
2017-12-20T05:06:26.699Z,18.43
2017-12-20T05:08:54.237Z,17.37
2017-12-20T05:11:21.790Z,15.73
2017-12-20T05:13:49.311Z,19.63
2017-12-20T05:16:16.855Z,17.57
2017-12-20T05:18:45.147Z,18.90
2017-12-20T05:21:12.694Z,16.33
2017-12-20T05:23:40.983Z,18.80
2017-12-20T05:26:08.543Z,20.93
2017-12-20T05:28:36.075Z,19.40
2017-12-20T05:31:03.636Z,16.10
2017-12-20T05:33:31.159Z,18.13
2017-12-20T05:35:58.707Z,22.30
2017-12-20T05:38:26.239Z,17.20
2017-12-20T05:40:53.788Z,12.47
2017-12-20T05:43:22.089Z,16.17
2017-12-20T05:45:49.656Z,21.00
2017-12-20T05:48:17.183Z,18.33
2017-12-20T05:50:45.514Z,15.00
2017-12-20T05:53:13.038Z,15.23
2017-12-20T05:55:40.596Z,16.83
2017-12-20T05:58:08.629Z,16.03
2017-12-20T06:00:36.225Z,20.90
2017-12-20T06:03:03.851Z,19.90
2017-12-20T06:05:31.385Z,16.40
2017-12-20T06:07:58.957Z,11.57
2017-12-20T06:10:26.487Z,14.63
2017-12-20T06:12:54.051Z,14.60
2017-12-20T06:15:21.579Z,13.83
2017-12-20T06:17:49.968Z,14.43
2017-12-20T06:20:17.568Z,12.60
2017-12-20T06:22:45.167Z,17.17
2017-12-20T06:25:12.828Z,12.93
2017-12-20T06:27:41.169Z,17.80
2017-12-20T06:51:23.971Z,14.90
2017-12-20T06:53:52.354Z,19.70
2017-12-20T06:56:20.678Z,15.63
2017-12-20T06:58:48.378Z,16.97
2017-12-20T07:01:15.926Z,14.80
2017-12-20T07:03:43.478Z,15.03
2017-12-20T07:06:11.026Z,16.40
2017-12-20T07:08:38.553Z,18.80
2017-12-20T07:11:06.189Z,18.40
2017-12-20T07:13:34.490Z,18.40
2017-12-20T07:16:02.212Z,13.27
2017-12-20T07:18:29.770Z,14.63
2017-12-20T07:20:57.303Z,13.87
2017-12-20T07:23:24.851Z,14.30
2017-12-20T07:25:52.392Z,13.03
2017-12-20T07:28:20.019Z,12.60
2017-12-20T07:30:47.538Z,12.77
2017-12-20T07:33:15.090Z,11.33
2017-12-20T07:35:42.615Z,15.17
2017-12-20T07:38:10.928Z,10.90
2017-12-20T07:40:38.547Z,11.33
2017-12-20T07:43:06.850Z,8.70
2017-12-20T07:45:34.384Z,10.27
2017-12-20T07:48:02.691Z,8.97
2017-12-20T07:50:30.226Z,11.53
2017-12-20T07:52:57.797Z,13.20
2017-12-20T07:55:25.327Z,8.97
2017-12-20T07:57:53.656Z,12.73
2017-12-20T08:00:21.417Z,10.50
2017-12-20T08:02:48.927Z,10.37
2017-12-20T08:05:16.451Z,10.37
2017-12-20T08:07:44.024Z,11.93
2017-12-20T08:10:11.583Z,11.43
2017-12-20T08:12:39.123Z,9.13
2017-12-20T08:15:07.539Z,9.77
2017-12-20T08:17:35.080Z,10.23
2017-12-20T08:20:02.645Z,10.83
2017-12-20T08:22:30.182Z,11.03
2017-12-20T08:24:57.738Z,13.43
2017-12-20T08:27:25.283Z,13.87
2017-12-20T08:29:52.852Z,13.80
2017-12-20T08:32:20.397Z,12.00
2017-12-20T08:34:47.959Z,11.30
2017-12-20T08:37:15.499Z,16.90
2017-12-20T08:39:43.826Z,13.27
2017-12-20T08:42:11.440Z,13.80
2017-12-20T08:44:39.754Z,15.50
2017-12-20T08:47:07.283Z,13.73
2017-12-20T08:49:34.812Z,14.53
2017-12-20T08:52:02.363Z,15.00
2017-12-20T08:54:29.895Z,12.73
2017-12-20T08:56:57.500Z,11.60
2017-12-20T08:59:25.024Z,9.80
2017-12-20T09:01:52.574Z,10.23
2017-12-20T09:04:20.128Z,9.83
2017-12-20T09:06:47.704Z,13.23
2017-12-20T09:09:15.315Z,8.53
2017-12-20T09:11:43.630Z,11.87
2017-12-20T09:14:11.167Z,10.77
2017-12-20T09:16:38.720Z,11.00
2017-12-20T09:19:06.287Z,10.70
2017-12-20T09:21:33.842Z,10.63
2017-12-20T09:24:02.131Z,9.80
2017-12-20T09:26:29.679Z,8.77
2017-12-20T09:28:57.215Z,8.40
2017-12-20T09:31:25.504Z,8.23
2017-12-20T09:33:53.820Z,7.73
2017-12-20T09:36:21.348Z,8.30
2017-12-20T09:38:49.657Z,7.57
2017-12-20T09:41:17.187Z,5.57
2017-12-20T09:43:44.739Z,5.17
2017-12-20T09:46:13.028Z,6.70
2017-12-20T09:48:40.572Z,7.37
2017-12-20T09:51:08.871Z,6.17
2017-12-20T09:53:36.422Z,5.43
2017-12-20T09:56:03.954Z,6.40
2017-12-20T09:58:34.154Z,6.53
2017-12-20T10:01:01.748Z,6.17
2017-12-20T10:03:30.157Z,5.73
2017-12-20T10:05:57.687Z,6.63
2017-12-20T10:08:26.055Z,7.80
2017-12-20T10:10:53.579Z,9.03
2017-12-20T10:13:21.147Z,7.00
2017-12-20T10:15:48.673Z,7.90
2017-12-20T10:18:16.987Z,8.87
2017-12-20T10:20:44.564Z,7.03
2017-12-20T10:23:12.900Z,6.73
2017-12-20T10:25:40.427Z,7.23
2017-12-20T10:28:08.791Z,9.40
2017-12-20T10:30:37.095Z,8.13
2017-12-20T10:33:04.639Z,7.73
2017-12-20T10:35:32.953Z,8.63
2017-12-20T10:38:00.508Z,9.37
2017-12-20T10:40:28.468Z,10.00
2017-12-20T10:42:56.055Z,8.67
2017-12-20T10:45:23.574Z,9.00
2017-12-20T10:47:51.608Z,7.77
2017-12-20T10:50:19.247Z,8.03
2017-12-20T10:52:47.171Z,7.70
2017-12-20T10:55:14.799Z,10.20
2017-12-20T10:57:42.503Z,7.47
2017-12-20T11:00:10.051Z,6.60
2017-12-20T11:02:38.354Z,7.87
2017-12-20T11:05:06.280Z,8.03
2017-12-20T11:07:37.980Z,6.57
2017-12-20T11:10:05.532Z,9.90
2017-12-20T11:12:33.082Z,8.43
2017-12-20T11:15:00.632Z,8.13
2017-12-20T11:17:28.927Z,5.37
2017-12-20T11:19:56.491Z,7.43
2017-12-20T11:22:24.015Z,7.40
2017-12-20T11:24:52.334Z,7.20
2017-12-20T11:27:19.863Z,8.00
2017-12-20T11:29:48.179Z,6.67
2017-12-20T11:32:15.710Z,6.47
2017-12-20T11:34:43.263Z,6.53
2017-12-20T11:37:11.555Z,6.37
2017-12-20T11:39:39.098Z,8.00
2017-12-20T11:42:07.386Z,6.30
2017-12-20T11:44:34.941Z,6.00
2017-12-20T11:47:02.479Z,6.53
2017-12-20T11:49:30.035Z,8.20
2017-12-20T11:51:57.556Z,8.83
2017-12-20T11:54:25.086Z,7.97
2017-12-20T11:56:52.642Z,8.13
2017-12-20T11:59:20.935Z,7.60
2017-12-20T12:01:48.484Z,7.30
2017-12-20T12:04:16.018Z,7.43
2017-12-20T12:06:44.347Z,9.47
2017-12-20T12:09:11.879Z,8.80
2017-12-20T12:11:39.435Z,10.57
2017-12-20T12:14:06.971Z,8.60
2017-12-20T12:16:34.532Z,8.80
2017-12-20T12:19:02.055Z,9.87
2017-12-20T12:21:29.614Z,11.17
2017-12-20T12:23:57.141Z,8.33
2017-12-20T12:26:24.691Z,12.43
2017-12-20T12:28:52.239Z,12.63
2017-12-20T12:31:20.559Z,14.77
2017-12-20T12:33:48.087Z,15.63
2017-12-20T12:36:15.642Z,14.93
2017-12-20T12:38:43.934Z,16.40
2017-12-20T12:41:11.491Z,14.43
2017-12-20T12:43:39.033Z,13.00
2017-12-20T12:46:07.411Z,16.00
2017-12-20T12:48:35.711Z,13.10
2017-12-20T12:51:03.250Z,15.10
2017-12-20T12:53:31.581Z,15.70
2017-12-20T12:55:59.115Z,17.10
2017-12-20T12:58:26.671Z,13.70
2017-12-20T13:00:54.970Z,11.67
2017-12-20T13:03:22.526Z,10.17
2017-12-20T13:05:50.069Z,14.63
2017-12-20T13:08:17.628Z,12.43
2017-12-20T13:10:45.163Z,13.37
2017-12-20T13:13:13.479Z,14.67
2017-12-20T13:15:41.011Z,15.97
2017-12-20T13:18:08.576Z,13.30
2017-12-20T13:20:36.106Z,15.03
2017-12-20T13:23:04.422Z,17.33
2017-12-20T13:25:31.953Z,14.73
2017-12-20T13:28:00.287Z,12.77
2017-12-20T13:30:27.815Z,11.00
2017-12-20T13:32:55.379Z,11.63
2017-12-20T13:35:22.906Z,11.50
2017-12-20T13:37:51.227Z,11.63
2017-12-20T13:40:18.758Z,12.50
2017-12-20T13:42:47.075Z,13.43
2017-12-20T13:45:14.600Z,11.10
2017-12-20T13:47:42.142Z,9.87
2017-12-20T13:50:10.435Z,11.40
2017-12-20T13:52:37.966Z,9.90
2017-12-20T13:55:05.537Z,12.20
2017-12-20T13:57:33.840Z,11.53
2017-12-20T14:00:01.397Z,10.10
2017-12-20T14:02:28.931Z,12.20
2017-12-20T14:04:57.259Z,12.13
2017-12-20T14:07:24.789Z,15.70
2017-12-20T14:09:52.347Z,10.67
2017-12-20T14:12:19.882Z,11.63
2017-12-20T14:14:47.444Z,17.27
2017-12-20T14:17:15.747Z,16.87
2017-12-20T14:19:43.303Z,10.40
2017-12-20T14:22:10.838Z,13.20
2017-12-20T14:24:38.398Z,14.73
2017-12-20T14:27:06.702Z,12.97
2017-12-20T14:29:34.272Z,12.50
2017-12-20T14:32:01.806Z,17.20
2017-12-20T14:34:30.131Z,16.07
2017-12-20T14:36:57.670Z,18.37
2017-12-20T14:39:25.226Z,18.27
2017-12-20T14:41:52.753Z,16.63
2017-12-20T14:44:21.070Z,16.70
2017-12-20T14:46:48.603Z,15.03
2017-12-20T14:49:16.926Z,13.50
2017-12-20T14:51:44.452Z,14.60
2017-12-20T14:54:12.015Z,19.00
2017-12-20T14:56:39.559Z,15.47
2017-12-20T14:59:07.887Z,20.90
2017-12-20T15:01:35.446Z,21.97
2017-12-20T15:04:03.008Z,19.30
2017-12-20T15:06:30.534Z,20.77
2017-12-20T15:08:58.103Z,20.17
2017-12-20T15:11:25.635Z,20.10
2017-12-20T15:13:53.950Z,16.03
2017-12-20T15:16:21.482Z,19.20
2017-12-20T15:18:49.031Z,20.00
2017-12-20T15:21:17.344Z,19.90
2017-12-20T15:23:44.902Z,19.47
2017-12-20T15:26:12.439Z,20.53
2017-12-20T15:28:40.004Z,23.67
2017-12-20T15:31:07.547Z,22.50
2017-12-20T15:33:35.866Z,18.13
2017-12-20T15:36:03.395Z,22.43
2017-12-20T15:38:30.946Z,21.70
2017-12-20T15:40:59.247Z,19.60
2017-12-20T15:43:26.799Z,22.43
2017-12-20T15:45:54.335Z,21.53
2017-12-20T15:48:22.679Z,21.27
2017-12-20T15:50:50.211Z,19.10
2017-12-20T15:53:17.775Z,16.93
2017-12-20T15:55:45.312Z,19.80
2017-12-20T15:58:12.885Z,19.30
2017-12-20T16:00:40.423Z,23.40
2017-12-20T16:03:07.994Z,21.90
2017-12-20T16:05:35.552Z,21.87
2017-12-20T16:08:03.086Z,24.47
2017-12-20T16:10:31.425Z,19.77
2017-12-20T16:12:58.955Z,25.93
2017-12-20T16:15:26.511Z,26.60
2017-12-20T16:17:54.046Z,23.53
2017-12-20T16:20:22.379Z,28.40
2017-12-20T16:22:49.911Z,20.93
2017-12-20T16:25:17.472Z,72.37
2017-12-20T16:27:45.000Z,36.17
2017-12-20T16:30:13.328Z,114.80
2017-12-20T16:32:40.863Z,85.67
2017-12-20T16:35:09.187Z,178.73
2017-12-20T16:37:36.718Z,143.90
2017-12-20T16:40:12.219Z,135.63
2017-12-20T16:42:40.518Z,47.17
2017-12-20T16:45:08.074Z,51.63
2017-12-20T16:47:35.619Z,135.67
2017-12-20T16:50:03.952Z,36.00
2017-12-20T16:52:31.485Z,34.70
2017-12-20T16:54:59.046Z,26.33
2017-12-20T16:57:26.582Z,22.10
2017-12-20T16:59:54.911Z,25.70
2017-12-20T17:02:22.443Z,23.03
2017-12-20T17:04:49.997Z,26.27
2017-12-20T17:07:17.534Z,25.70
2017-12-20T17:09:45.850Z,23.00
2017-12-20T17:12:13.381Z,23.40
2017-12-20T17:14:40.944Z,23.87
2017-12-20T17:17:08.478Z,28.30
2017-12-20T17:19:36.039Z,24.87
2017-12-20T17:22:04.343Z,31.17
2017-12-20T17:24:31.906Z,27.37
2017-12-20T17:26:59.432Z,26.43
2017-12-20T17:29:27.019Z,28.83
2017-12-20T17:31:54.555Z,27.33
2017-12-20T17:34:22.114Z,28.30
2017-12-20T17:36:50.415Z,31.23
2017-12-20T17:39:17.967Z,40.70
2017-12-20T17:41:46.254Z,36.23
2017-12-20T17:44:13.806Z,31.00
2017-12-20T17:46:42.112Z,33.03
2017-12-20T17:49:09.678Z,24.40
2017-12-20T17:51:37.222Z,25.57
2017-12-20T17:54:04.779Z,36.60
2017-12-20T17:56:32.315Z,40.80
2017-12-20T17:59:00.647Z,45.27
2017-12-20T18:01:28.186Z,41.83
2017-12-20T18:03:55.746Z,32.87
2017-12-20T18:06:23.295Z,35.63
2017-12-20T18:08:50.858Z,34.20
2017-12-20T18:11:18.396Z,26.80
2017-12-20T18:13:46.695Z,29.83
2017-12-20T18:16:14.250Z,29.90
2017-12-20T18:18:41.787Z,29.87
2017-12-20T18:21:10.118Z,33.57
2017-12-20T18:23:37.645Z,39.23
2017-12-20T18:26:05.205Z,34.20
2017-12-20T18:28:32.738Z,35.77
2017-12-20T18:31:01.076Z,46.90
2017-12-20T18:33:28.610Z,55.73
2017-12-20T18:35:56.931Z,92.37
2017-12-20T18:38:24.475Z,43.53
2017-12-20T18:40:52.033Z,47.77
2017-12-20T18:43:19.572Z,35.30
2017-12-20T18:45:47.131Z,37.63
2017-12-20T18:48:14.666Z,41.43
2017-12-20T18:50:42.996Z,38.10
2017-12-20T18:53:10.536Z,42.30
2017-12-20T18:55:38.094Z,38.23
2017-12-20T18:58:05.633Z,57.87
2017-12-20T19:00:33.194Z,40.93
2017-12-20T19:03:00.733Z,39.47
2017-12-20T19:05:29.067Z,38.27
2017-12-20T19:07:56.597Z,47.23
2017-12-20T19:10:24.164Z,37.50
2017-12-20T19:12:51.703Z,40.97
2017-12-20T19:15:19.254Z,40.17
2017-12-20T19:17:47.550Z,40.07
2017-12-20T19:20:15.109Z,47.13
2017-12-20T19:22:42.636Z,41.73
2017-12-20T19:25:10.464Z,43.50
2017-12-20T19:27:38.158Z,38.97
2017-12-20T19:30:05.729Z,40.77
2017-12-20T19:32:34.041Z,50.23
2017-12-20T19:35:01.612Z,42.63
2017-12-20T19:37:29.155Z,40.30
2017-12-20T19:39:56.720Z,42.50
2017-12-20T19:42:24.256Z,36.53
2017-12-20T19:44:52.582Z,77.83
2017-12-20T19:47:20.123Z,97.57
2017-12-20T19:49:47.681Z,79.33
2017-12-20T19:52:15.219Z,128.57
2017-12-20T19:54:43.542Z,54.23
2017-12-20T19:57:11.079Z,59.80
2017-12-20T19:59:38.655Z,171.37
2017-12-20T20:02:06.182Z,88.57
2017-12-20T20:04:33.796Z,84.70
2017-12-20T20:07:01.309Z,55.07
2017-12-20T20:09:28.881Z,57.80
2017-12-20T20:11:56.410Z,167.50
2017-12-20T20:14:24.736Z,84.80
2017-12-20T20:16:52.269Z,78.67
2017-12-20T20:19:20.156Z,57.30
2017-12-20T20:21:47.718Z,52.97
2017-12-20T20:24:15.250Z,65.17
2017-12-20T20:26:42.807Z,69.17
2017-12-20T20:29:10.344Z,62.47
2017-12-20T20:31:38.675Z,91.97
2017-12-20T20:34:06.206Z,56.17
2017-12-20T20:36:33.766Z,86.60
2017-12-20T20:39:01.299Z,82.47
2017-12-20T20:41:29.627Z,59.93
2017-12-20T20:43:57.159Z,61.57
2017-12-20T20:46:24.721Z,49.33
2017-12-20T20:48:52.256Z,53.40
2017-12-20T20:51:20.574Z,57.97
2017-12-20T20:53:48.110Z,53.33
2017-12-20T20:56:15.688Z,67.30
2017-12-20T20:58:43.224Z,56.70
2017-12-20T21:01:11.693Z,52.97
2017-12-20T21:03:39.252Z,72.60
2017-12-20T21:06:07.577Z,59.57
2017-12-20T21:08:35.120Z,57.67
2017-12-20T21:11:02.677Z,53.23
2017-12-20T21:13:30.214Z,53.40
2017-12-20T21:15:58.528Z,62.00
2017-12-20T21:18:26.076Z,56.33
2017-12-20T21:20:53.798Z,75.90
2017-12-20T21:23:22.138Z,61.40
2017-12-20T21:25:49.695Z,58.80
2017-12-20T21:28:17.227Z,69.40
2017-12-20T21:30:44.799Z,48.17
2017-12-20T21:33:12.332Z,76.23
2017-12-20T21:35:40.668Z,81.40
2017-12-20T21:38:08.210Z,78.53
2017-12-20T21:40:36.114Z,59.13
2017-12-20T21:43:04.452Z,57.40
2017-12-20T21:45:32.058Z,65.73
2017-12-20T21:47:59.628Z,65.10
2017-12-20T21:50:27.225Z,80.87
2017-12-20T21:52:54.760Z,94.10
2017-12-20T21:55:23.063Z,188.53
2017-12-20T21:57:50.630Z,117.47
2017-12-20T22:00:18.308Z,63.47
2017-12-20T22:02:45.945Z,127.93
2017-12-20T22:05:13.522Z,138.47
2017-12-20T22:07:41.095Z,88.93
2017-12-20T22:10:08.636Z,70.47
2017-12-20T22:12:36.215Z,86.63
2017-12-20T22:15:03.908Z,93.70
2017-12-20T22:17:31.477Z,92.50
2017-12-20T22:19:59.792Z,71.73
2017-12-20T22:22:27.346Z,55.57
2017-12-20T22:24:54.882Z,60.80
2017-12-20T22:27:23.228Z,67.50
2017-12-20T22:29:50.774Z,65.03
2017-12-20T22:32:18.451Z,71.33
2017-12-20T22:34:45.993Z,84.70
2017-12-20T22:37:13.538Z,49.23
2017-12-20T22:39:41.076Z,67.17
2017-12-20T22:42:09.408Z,52.43
2017-12-20T22:44:36.934Z,50.77
2017-12-20T22:47:04.497Z,68.23
2017-12-20T22:49:32.032Z,84.60
2017-12-20T22:51:59.564Z,67.57
2017-12-20T22:54:27.893Z,68.20
2017-12-20T22:56:55.431Z,110.67
2017-12-20T22:59:22.992Z,66.50
2017-12-20T23:01:50.539Z,52.23
2017-12-20T23:04:18.858Z,73.93
2017-12-20T23:06:46.410Z,90.50
2017-12-20T23:09:13.966Z,70.33
2017-12-20T23:11:41.503Z,55.20
2017-12-20T23:14:09.064Z,97.57
2017-12-20T23:16:36.607Z,67.30
2017-12-20T23:19:05.148Z,64.60
2017-12-20T23:21:32.690Z,51.63
2017-12-20T23:24:00.252Z,61.13
2017-12-20T23:26:27.784Z,65.63
2017-12-20T23:28:55.351Z,60.00
2017-12-20T23:31:22.898Z,55.57
2017-12-20T23:33:51.218Z,55.07
2017-12-20T23:36:18.743Z,56.23
2017-12-20T23:38:46.303Z,55.87
2017-12-20T23:41:13.847Z,51.13
2017-12-20T23:43:42.182Z,57.87
2017-12-20T23:46:09.730Z,81.97
2017-12-20T23:48:37.270Z,77.47
2017-12-20T23:51:04.854Z,55.53
2017-12-20T23:53:32.403Z,119.53
2017-12-20T23:56:00.737Z,59.73
2017-12-20T23:58:29.051Z,65.43
